Flight Number: EUR2034 Duration: 0:50
Departure: Vienna Schwechat (LOWW) at 07:00 Distance: 192 Nm
Arrival: Munich Int'l (EDDM) at 07:50 Equipment: B737

Weather Information
Wien / Schwechat-Flughafen, Austria (LOWW) 48-07N 016-34E 190M Nov 19, 2018 - 04:50 PM EST / 2018.11.19 2150 UTC
Wind: from the E (090 degrees) at 6 MPH (5 KT):0
Visibility: 4 mile(s):0
Sky conditions: mostly cloudy Temperature: 35 F (2 C)
Windchill: 30 F (-1 C):1 Dew Point: 33 F (1 C) Relative Humidity: 93% Pressure (altimeter): 30.06 in. Hg (1018 hPa)
ob: LOWW 192150Z 09005KT 8000 FEW006 SCT007 BKN010 02/01 Q1018 TEMPO BKN015 cycle: 22
Sunrise: 06:11 Sunset: 15:07 (UTC)

Munchen, Germany (EDDM) 48-21N 011-47E Nov 19, 2018 - 04:50 PM EST / 2018.11.19 2150 UTC
Wind: from the E (080 degrees) at 13 MPH (11 KT):0
Visibility: greater than 7 mile(s):0
Sky conditions: overcast Temperature: 32 F (0 C)
Windchill: 23 F (-5 C):1 Dew Point: 26 F (-3 C) Relative Humidity: 80% Pressure (altimeter): 29.77 in. Hg (1008 hPa)
ob: EDDM 192150Z 08011KT 9999 OVC013 M00/M03 Q1008 NOSIG cycle: 22
Sunrise: 06:30 Sunset: 15:25 (UTC)

TAF:2018/11/19 18:27 TAF EDDM 191700Z 1918/2024 08015KT 9999 BKN015 TEMPO 1918/2012 BKN012 BECMG 1923/2001 09010KT PROB30 TEMPO 2004/2007 4500 -SN BKN009 BECMG 2013/2015 09005KT BECMG 2019/2023 BKN007

Previous Pireps for this route
Date Aircraft Flight time Fuel used Landing rate On time
2013-04-01B737150000No
2013-07-06B73700.575700-422No
2013-07-06B73701.008599-817No
2013-07-21B7370.5000No
2013-08-15B73701.016744-288No
2013-10-20B7371.0092540No
2014-03-31B73701.199380-574No
2014-04-03B73700.588004-338Charter
2014-06-28B73700.52-12-337No
2014-06-28B7370.5913800No
2015-01-13B73701.075609-153Yes
2015-03-12B73700.494943-86Yes
2015-03-28B73700.494149-273Yes
2015-04-04B73700.484345-256Yes
2015-04-05B73701.088560-479Yes
2015-04-06B73700.503379-138Yes
2015-06-23B7370.4649900Yes
2015-07-12B7370.5557050Yes
(pireps marked green are flown by you)

Route map